createdAt,value
2022-08-19T00:02:17.330Z,101285.66
2022-08-19T00:04:48.856Z,101288.53
2022-08-19T00:07:16.286Z,101281.63
2022-08-19T00:09:43.673Z,101276.53
2022-08-19T00:12:11.189Z,101283.66
2022-08-19T00:14:39.078Z,101290.34
2022-08-19T00:17:07.597Z,101290.19
2022-08-19T00:19:35.383Z,101290.59
2022-08-19T00:22:04.670Z,101298.75
2022-08-19T00:24:32.044Z,101303.47
2022-08-19T00:27:25.143Z,101299.41
2022-08-19T00:29:47.308Z,101289.28
2022-08-19T00:32:20.402Z,101285.00
2022-08-19T00:34:48.049Z,101291.31
2022-08-19T00:37:16.865Z,101292.34
2022-08-19T00:39:44.359Z,101281.97
2022-08-19T00:42:11.813Z,101274.88
2022-08-19T00:44:39.385Z,101276.34
2022-08-19T00:47:07.538Z,101289.75
2022-08-19T00:49:43.648Z,101274.94
2022-08-19T00:52:13.888Z,101275.34
2022-08-19T00:54:43.440Z,101274.53
2022-08-19T00:57:13.648Z,101282.69
2022-08-19T01:00:01.048Z,101275.22
2022-08-19T01:02:29.680Z,101281.56
2022-08-19T01:04:57.348Z,101284.78
2022-08-19T01:07:25.006Z,101274.81
2022-08-19T01:09:54.252Z,101281.94
2022-08-19T01:12:22.518Z,101284.56
2022-08-19T01:14:51.061Z,101282.97
2022-08-19T01:17:18.903Z,101278.31
2022-08-19T01:19:47.860Z,101279.31
2022-08-19T01:22:21.618Z,101280.34
2022-08-19T01:24:55.432Z,101247.97
2022-08-19T01:27:24.347Z,101280.00
2022-08-19T01:29:52.236Z,101286.50
2022-08-19T01:32:32.238Z,101278.78
2022-08-19T01:35:02.941Z,101286.13
2022-08-19T01:37:31.219Z,101288.13
2022-08-19T01:40:00.088Z,101285.31
2022-08-19T01:42:30.167Z,101289.56
2022-08-19T01:44:58.143Z,101289.56
2022-08-19T01:47:25.784Z,101296.03
2022-08-19T01:49:53.261Z,101287.13
2022-08-19T01:52:20.711Z,101296.84
2022-08-19T01:54:48.167Z,101299.50
2022-08-19T01:57:17.491Z,101296.03
2022-08-19T01:59:46.658Z,101293.84
2022-08-19T02:02:14.716Z,101294.88
2022-08-19T02:04:42.227Z,101296.69
2022-08-19T02:07:09.890Z,101297.13
2022-08-19T02:09:37.717Z,101299.16
2022-08-19T02:12:05.182Z,101297.53
2022-08-19T02:14:35.587Z,101299.56
2022-08-19T02:17:03.246Z,101301.63
2022-08-19T02:19:33.292Z,101298.41
2022-08-19T02:22:00.818Z,101301.03
2022-08-19T02:24:28.522Z,101308.16
2022-08-19T02:26:56.138Z,101298.81
2022-08-19T02:29:23.573Z,101302.25
2022-08-19T02:31:52.566Z,101295.56
2022-08-19T02:34:19.995Z,101294.97
2022-08-19T02:36:51.723Z,101294.59
2022-08-19T02:39:18.516Z,101303.69
2022-08-19T02:41:46.277Z,101300.03
2022-08-19T02:44:29.688Z,101293.94
2022-08-19T02:46:59.491Z,101287.88
2022-08-19T02:49:26.893Z,101293.13
2022-08-19T02:51:55.301Z,101291.53
2022-08-19T02:54:22.765Z,101292.75
2022-08-19T02:56:50.244Z,101283.25
2022-08-19T02:59:17.720Z,101284.25
2022-08-19T03:01:50.292Z,101271.06
2022-08-19T03:04:20.146Z,101277.16
2022-08-19T03:06:48.365Z,101277.16
2022-08-19T03:09:16.239Z,101281.63
2022-08-19T03:11:43.642Z,101278.16
2022-08-19T03:14:11.450Z,101278.16
2022-08-19T03:16:43.112Z,101280.41
2022-08-19T03:19:10.510Z,101288.13
2022-08-19T03:21:39.265Z,101286.75
2022-08-19T03:24:07.899Z,101283.50
2022-08-19T03:26:36.065Z,101277.84
2022-08-19T03:29:04.919Z,101269.13
2022-08-19T03:31:43.584Z,101270.34
2022-08-19T03:34:13.841Z,101271.00
2022-08-19T03:36:42.935Z,101264.72
2022-08-19T03:39:11.609Z,101265.31
2022-08-19T03:41:44.926Z,101265.56
2022-08-19T03:44:18.049Z,101268.81
2022-08-19T03:46:46.925Z,101267.44
2022-08-19T03:49:14.740Z,101270.66
2022-08-19T03:51:44.441Z,101267.88
2022-08-19T03:54:13.037Z,101281.69
2022-08-19T03:56:41.769Z,101274.59
2022-08-19T03:59:10.502Z,101277.22
2022-08-19T04:01:38.214Z,101271.34
2022-08-19T04:04:05.941Z,101269.91
2022-08-19T04:06:39.726Z,101281.25
2022-08-19T04:09:09.505Z,101280.84
2022-08-19T04:11:43.706Z,101281.84
2022-08-19T04:14:12.471Z,101279.41
2022-08-19T04:16:39.930Z,101279.66
2022-08-19T04:19:07.646Z,101280.22
2022-08-19T04:21:35.485Z,101274.16
2022-08-19T04:24:03.793Z,101262.38
2022-08-19T04:26:34.840Z,101268.88
2022-08-19T04:29:03.068Z,101262.00
2022-08-19T04:31:31.807Z,101270.13
2022-08-19T04:34:01.304Z,101253.50
2022-08-19T04:36:30.411Z,101264.25
2022-08-19T04:38:58.429Z,101258.38
2022-08-19T04:41:43.693Z,101260.19
2022-08-19T04:44:13.095Z,101260.78
2022-08-19T04:46:51.671Z,101261.81
2022-08-19T04:49:20.102Z,101269.72
2022-08-19T04:51:49.225Z,101272.34
2022-08-19T04:54:33.773Z,101266.28
2022-08-19T04:57:06.972Z,101275.59
2022-08-19T04:59:35.766Z,101285.94
2022-08-19T05:02:03.306Z,101282.28
2022-08-19T05:04:33.201Z,101292.59
2022-08-19T05:07:01.631Z,101288.75
2022-08-19T05:09:32.878Z,101296.84
2022-08-19T05:12:17.932Z,101306.75
2022-08-19T05:14:50.301Z,101312.63
2022-08-19T05:17:27.659Z,101310.41
2022-08-19T05:20:13.377Z,101306.31
2022-08-19T05:22:40.853Z,101303.50
2022-08-19T05:25:12.927Z,101294.13
2022-08-19T05:27:41.501Z,101294.28
2022-08-19T05:30:11.480Z,101288.78
2022-08-19T05:32:38.945Z,101285.28
2022-08-19T05:35:06.701Z,101289.94
2022-08-19T05:37:34.505Z,101288.75
2022-08-19T05:40:02.357Z,101294.81
2022-08-19T05:42:31.476Z,101297.19
2022-08-19T05:44:58.966Z,101298.41
2022-08-19T05:47:28.407Z,101297.94
2022-08-19T05:49:55.944Z,101289.00
2022-08-19T05:52:25.839Z,101286.56
2022-08-19T05:54:56.045Z,101294.63
2022-08-19T05:57:23.945Z,101283.88
2022-08-19T05:59:52.835Z,101285.59
2022-08-19T06:02:25.834Z,101289.16
2022-08-19T06:04:54.771Z,101286.25
2022-08-19T06:07:22.273Z,101286.91
2022-08-19T06:09:58.855Z,101291.06
2022-08-19T06:12:31.485Z,101289.25
2022-08-19T06:15:01.261Z,101293.81
2022-08-19T06:17:31.065Z,101287.13
2022-08-19T06:20:00.659Z,101298.16
2022-08-19T06:22:28.764Z,101290.06
2022-08-19T06:24:56.332Z,101294.50
2022-08-19T06:27:23.768Z,101292.88
2022-08-19T06:29:51.252Z,101293.97
2022-08-19T06:32:19.782Z,101281.41
2022-08-19T06:34:47.601Z,101285.25
2022-08-19T06:37:16.730Z,101286.88
2022-08-19T06:39:45.299Z,101297.53
2022-08-19T06:42:17.405Z,101295.78
2022-08-19T06:44:48.853Z,101292.63
2022-08-19T06:47:24.008Z,101293.78
2022-08-19T06:50:00.940Z,101296.09
2022-08-19T06:52:30.420Z,101297.94
2022-08-19T06:54:59.586Z,101292.88
2022-08-19T06:57:28.225Z,101298.94
2022-08-19T06:59:57.448Z,101303.41
2022-08-19T07:02:27.198Z,101305.03
2022-08-19T07:04:54.667Z,101312.69
2022-08-19T07:07:23.185Z,101310.75
2022-08-19T07:09:59.355Z,101307.22
2022-08-19T07:12:29.661Z,101311.44
2022-08-19T07:14:59.312Z,101315.34
2022-08-19T07:17:27.215Z,101307.69
2022-08-19T07:19:56.079Z,101322.97
2022-08-19T07:22:24.671Z,101313.41
2022-08-19T07:24:53.566Z,101314.50
2022-08-19T07:27:24.819Z,101328.69
2022-08-19T07:29:55.661Z,101326.94
2022-08-19T07:32:26.863Z,101325.94
2022-08-19T07:34:54.652Z,101332.44
2022-08-19T07:37:22.456Z,101332.88
2022-08-19T07:39:50.061Z,101330.00
2022-08-19T07:42:18.945Z,101329.84
2022-08-19T07:44:49.946Z,101326.88
2022-08-19T07:47:47.415Z,101318.28
2022-08-19T07:50:08.009Z,101321.72
2022-08-19T07:52:35.623Z,101323.91
2022-08-19T07:55:04.737Z,101322.03
2022-08-19T07:57:33.616Z,101326.66
2022-08-19T08:00:01.132Z,101329.81
2022-08-19T08:02:28.663Z,101340.84
2022-08-19T08:05:13.565Z,101335.88
2022-08-19T08:07:58.490Z,101342.22
2022-08-19T08:10:26.054Z,101339.63
2022-08-19T08:13:08.785Z,101341.50
2022-08-19T08:15:42.560Z,101345.69
2022-08-19T08:18:11.070Z,101345.91
2022-08-19T08:20:38.701Z,101354.97
2022-08-19T08:23:26.322Z,101356.88
2022-08-19T08:25:55.539Z,101354.25
2022-08-19T08:28:24.563Z,101359.56
2022-08-19T08:30:53.806Z,101357.66
2022-08-19T08:33:32.885Z,101358.91
2022-08-19T08:36:02.037Z,101353.81
2022-08-19T08:38:38.362Z,101354.81
2022-08-19T08:41:10.574Z,101349.47
2022-08-19T08:43:40.047Z,101352.63
2022-08-19T08:46:12.125Z,101355.97
2022-08-19T08:48:42.619Z,101350.38
2022-08-19T08:51:13.351Z,101358.84
2022-08-19T08:53:42.190Z,101361.50
2022-08-19T08:56:13.349Z,101355.09
2022-08-19T08:58:54.461Z,101358.94
2022-08-19T09:01:23.327Z,101362.84
2022-08-19T09:03:50.878Z,101363.38
2022-08-19T09:06:25.871Z,101359.38
2022-08-19T09:08:58.464Z,101356.13
2022-08-19T09:11:42.992Z,101354.34
2022-08-19T09:14:40.601Z,101359.53
2022-08-19T09:17:09.063Z,101363.06
2022-08-19T09:19:37.216Z,101360.34
2022-08-19T09:22:06.186Z,101360.56
2022-08-19T09:24:33.638Z,101365.91
2022-08-19T09:27:03.582Z,101370.13
2022-08-19T09:29:34.468Z,101363.47
2022-08-19T09:32:01.922Z,101362.13
2022-08-19T09:34:30.333Z,101363.34
2022-08-19T09:37:06.185Z,101361.38
2022-08-19T09:39:36.138Z,101367.56
2022-08-19T09:42:04.422Z,101373.06
2022-08-19T09:44:31.874Z,101375.25
2022-08-19T09:47:01.211Z,101368.81
2022-08-19T09:49:28.748Z,101371.47
2022-08-19T09:51:57.030Z,101372.13
2022-08-19T09:54:25.298Z,101376.25
2022-08-19T09:56:53.186Z,101365.38
2022-08-19T09:59:20.655Z,101374.91
2022-08-19T10:01:48.310Z,101374.84
2022-08-19T10:04:20.542Z,101376.59
2022-08-19T10:06:53.457Z,101373.06
2022-08-19T10:09:33.759Z,101369.25
2022-08-19T10:12:02.697Z,101367.31
2022-08-19T10:14:30.837Z,101356.53
2022-08-19T10:16:59.116Z,101317.38
2022-08-19T10:19:29.228Z,101360.63
2022-08-19T10:22:00.450Z,101360.28
2022-08-19T10:24:28.762Z,101355.34
2022-08-19T10:26:57.286Z,101349.28
2022-08-19T10:29:33.139Z,101345.69
2022-08-19T10:32:01.965Z,101343.47
2022-08-19T10:34:32.586Z,101339.66
2022-08-19T10:37:01.730Z,101358.88
2022-08-19T10:39:30.943Z,101349.63
2022-08-19T10:41:59.111Z,101348.50
2022-08-19T10:44:32.278Z,101350.66
2022-08-19T10:47:00.947Z,101341.59
2022-08-19T10:49:28.586Z,101349.03
2022-08-19T10:52:18.807Z,101347.75
2022-08-19T10:55:08.318Z,101350.31
2022-08-19T10:57:59.488Z,101348.28
2022-08-19T11:00:24.622Z,101348.88
2022-08-19T11:02:52.059Z,101342.69
2022-08-19T11:05:19.737Z,101346.16
2022-08-19T11:07:51.223Z,101345.06
2022-08-19T11:13:14.887Z,101345.19
2022-08-19T11:15:42.299Z,101350.28
2022-08-19T11:18:13.238Z,101345.44
2022-08-19T11:20:40.941Z,101348.31
2022-08-19T11:23:09.874Z,101345.38
2022-08-19T11:25:40.083Z,101340.88
2022-08-19T11:28:07.487Z,101339.00
2022-08-19T11:30:35.137Z,101339.78
2022-08-19T11:33:03.412Z,101339.75
2022-08-19T11:35:30.857Z,101344.22
2022-08-19T11:38:02.271Z,101339.22
2022-08-19T11:40:31.073Z,101345.81
2022-08-19T11:42:58.486Z,101340.94
2022-08-19T11:45:26.539Z,101341.13
2022-08-19T11:47:54.191Z,101352.56
2022-08-19T11:50:21.974Z,101355.97
2022-08-19T11:52:50.559Z,101360.19
2022-08-19T11:55:18.062Z,101376.34
2022-08-19T11:57:47.684Z,101376.97
2022-08-19T12:00:15.653Z,101376.47
2022-08-19T12:02:43.325Z,101340.03
2022-08-19T12:05:12.795Z,101375.13
2022-08-19T12:07:41.762Z,101372.16
2022-08-19T12:10:10.700Z,101380.84
2022-08-19T12:12:41.371Z,101373.75
2022-08-19T12:15:12.006Z,101376.47
2022-08-19T12:17:39.881Z,101380.94
2022-08-19T12:20:09.329Z,101370.59
2022-08-19T12:22:36.923Z,101380.69
2022-08-19T12:25:04.824Z,101378.00
2022-08-19T12:27:40.698Z,101384.00
2022-08-19T12:30:12.344Z,101375.97
2022-08-19T12:32:40.238Z,101375.44
2022-08-19T12:35:10.092Z,101367.06
2022-08-19T12:37:37.592Z,101359.97
2022-08-19T12:40:06.204Z,101356.28
2022-08-19T12:42:33.683Z,101353.81
2022-08-19T12:45:01.146Z,101345.78
2022-08-19T12:47:31.335Z,101343.81
2022-08-19T12:50:02.619Z,101350.94
2022-08-19T12:52:31.747Z,101356.34
2022-08-19T12:54:59.338Z,101355.38
2022-08-19T12:57:32.882Z,101360.13
2022-08-19T13:00:01.565Z,101359.75
2022-08-19T13:02:38.772Z,101350.53
2022-08-19T13:05:07.712Z,101347.06
2022-08-19T13:07:35.719Z,101347.13
2022-08-19T13:10:03.288Z,101342.22
2022-08-19T13:12:31.007Z,101346.88
2022-08-19T13:14:58.422Z,101324.16
2022-08-19T13:17:26.220Z,101342.75
2022-08-19T13:19:55.004Z,101349.59
2022-08-19T13:22:22.453Z,101349.16
2022-08-19T13:24:50.229Z,101342.63
2022-08-19T13:27:17.632Z,101344.81
2022-08-19T13:30:08.001Z,101339.69
2022-08-19T13:32:53.252Z,101306.84
2022-08-19T13:35:22.146Z,101331.31
2022-08-19T13:40:19.160Z,101333.09
2022-08-19T13:42:48.272Z,101338.03
2022-08-19T13:45:17.487Z,101335.75
2022-08-19T13:47:47.191Z,101335.53
2022-08-19T13:50:16.769Z,101335.47
2022-08-19T13:52:45.891Z,101333.41
2022-08-19T13:55:13.948Z,101328.31
2022-08-19T13:57:41.334Z,101333.13
2022-08-19T14:00:10.650Z,101320.84
2022-08-19T14:02:38.548Z,101329.13
2022-08-19T14:05:06.600Z,101326.41
2022-08-19T14:07:34.076Z,101318.97
2022-08-19T14:10:02.886Z,101324.59
2022-08-19T14:12:30.484Z,101320.84
2022-08-19T14:14:57.940Z,101325.59
2022-08-19T14:17:25.918Z,101321.09
2022-08-19T14:19:57.837Z,101313.06
2022-08-19T14:22:25.355Z,101316.25
2022-08-19T14:24:52.785Z,101318.63
2022-08-19T14:27:21.532Z,101314.94
2022-08-19T14:29:49.054Z,101323.09
2022-08-19T14:32:16.928Z,101329.94
2022-08-19T14:34:46.606Z,101323.06
2022-08-19T14:37:14.919Z,101316.16
2022-08-19T14:39:42.406Z,101322.78
2022-08-19T14:42:11.588Z,101310.97
2022-08-19T14:44:40.453Z,101318.09
2022-08-19T14:47:08.630Z,101312.59
2022-08-19T14:49:43.093Z,101315.19
2022-08-19T14:52:13.333Z,101315.66
2022-08-19T14:54:40.773Z,101318.41
2022-08-19T14:57:08.226Z,101317.25
2022-08-19T14:59:36.343Z,101311.88
2022-08-19T15:02:33.947Z,101315.50
2022-08-19T15:04:58.525Z,101311.88
2022-08-19T15:07:29.142Z,101321.75
2022-08-19T15:09:57.285Z,101325.22
2022-08-19T15:12:24.845Z,101327.00
2022-08-19T15:14:55.151Z,101319.06
2022-08-19T15:17:44.993Z,101325.56
2022-08-19T15:20:14.407Z,101321.25
2022-08-19T15:22:43.101Z,101314.84
2022-08-19T15:25:12.415Z,101311.84
2022-08-19T15:27:40.662Z,101318.69
2022-08-19T15:30:09.320Z,101323.13
2022-08-19T15:32:38.754Z,101320.84
2022-08-19T15:35:07.056Z,101316.59
2022-08-19T15:37:37.273Z,101318.69
2022-08-19T15:40:05.855Z,101322.50
2022-08-19T15:42:33.408Z,101330.66
2022-08-19T15:45:02.299Z,101341.13
2022-08-19T15:47:34.454Z,101340.03
2022-08-19T15:50:05.754Z,101342.59
2022-08-19T15:52:33.265Z,101338.53
2022-08-19T15:55:01.463Z,101346.38
2022-08-19T15:57:46.435Z,101347.75
2022-08-19T16:00:32.021Z,101351.47
2022-08-19T16:03:17.412Z,101353.19
2022-08-19T16:06:03.727Z,101309.06
2022-08-19T16:08:31.471Z,101351.69
2022-08-19T16:10:58.948Z,101348.06
2022-08-19T16:13:26.443Z,101352.91
2022-08-19T16:15:57.060Z,101366.47
2022-08-19T16:18:25.337Z,101360.22
2022-08-19T16:20:54.145Z,101359.66
2022-08-19T16:23:21.592Z,101355.06
2022-08-19T16:25:49.296Z,101358.44
2022-08-19T16:28:16.762Z,101350.75
2022-08-19T16:30:48.708Z,101355.25
2022-08-19T16:33:22.853Z,101352.19
2022-08-19T16:35:56.075Z,101360.25
2022-08-19T16:38:37.625Z,101345.66
2022-08-19T16:41:05.415Z,101346.25
2022-08-19T16:43:33.181Z,101354.50
2022-08-19T16:46:01.564Z,101356.22
2022-08-19T16:48:30.167Z,101368.00
2022-08-19T16:50:58.335Z,101363.16
2022-08-19T16:53:28.997Z,101359.59
2022-08-19T16:55:58.801Z,101356.56
2022-08-19T16:58:28.071Z,101352.69
2022-08-19T17:00:59.512Z,101349.00
2022-08-19T17:03:36.511Z,101354.69
2022-08-19T17:06:18.921Z,101350.19
2022-08-19T17:08:49.046Z,101342.28
2022-08-19T17:11:19.082Z,101343.00
2022-08-19T17:13:48.103Z,101347.53
2022-08-19T17:16:16.485Z,101341.16
2022-08-19T17:18:44.044Z,101345.25
2022-08-19T17:21:13.058Z,101347.53
2022-08-19T17:23:42.834Z,101339.69
2022-08-19T17:26:16.769Z,101340.84
2022-08-19T17:28:49.326Z,101348.94
2022-08-19T17:31:16.900Z,101338.31
2022-08-19T17:33:48.168Z,101354.59
2022-08-19T17:36:16.484Z,101350.81
2022-08-19T17:38:44.097Z,101353.84
2022-08-19T17:41:11.591Z,101354.63
2022-08-19T17:43:43.303Z,101357.56
2022-08-19T17:46:17.687Z,101358.91
2022-08-19T17:48:51.907Z,101363.56
2022-08-19T17:51:22.300Z,101360.75
2022-08-19T17:53:51.568Z,101368.09
2022-08-19T17:56:19.948Z,101370.16
2022-08-19T17:58:59.654Z,101374.44
2022-08-19T18:01:52.373Z,101375.72
2022-08-19T18:04:19.726Z,101379.53
2022-08-19T18:06:52.953Z,101378.03
2022-08-19T18:09:23.796Z,101335.22
2022-08-19T18:11:52.772Z,101383.91
2022-08-19T18:14:20.814Z,101375.16
2022-08-19T18:16:50.468Z,101378.38
2022-08-19T18:19:18.743Z,101382.94
2022-08-19T18:21:47.050Z,101379.31
2022-08-19T18:24:15.134Z,101376.19
2022-08-19T18:26:42.935Z,101382.53
2022-08-19T18:29:10.802Z,101383.59
2022-08-19T18:31:39.402Z,101391.69
2022-08-19T18:34:10.024Z,101393.91
2022-08-19T18:36:53.423Z,101388.09
2022-08-19T18:39:47.462Z,101393.84
2022-08-19T18:42:33.109Z,101403.44
2022-08-19T18:45:18.219Z,101403.69
2022-08-19T18:48:03.199Z,101405.75
2022-08-19T18:50:32.845Z,101417.25
2022-08-19T18:53:01.797Z,101421.91
2022-08-19T18:55:29.720Z,101424.09
2022-08-19T18:57:57.506Z,101423.38
2022-08-19T19:00:25.298Z,101432.38
2022-08-19T19:02:54.515Z,101435.31
2022-08-19T19:05:23.174Z,101431.25
2022-08-19T19:07:53.318Z,101437.84
2022-08-19T19:10:21.266Z,101445.09
2022-08-19T19:12:50.069Z,101448.47
2022-08-19T19:15:18.844Z,101452.75
2022-08-19T19:17:46.601Z,101461.25
2022-08-19T19:20:14.100Z,101466.25
2022-08-19T19:22:41.578Z,101461.25
2022-08-19T19:25:11.510Z,101465.78
2022-08-19T19:27:40.274Z,101467.13
2022-08-19T19:30:08.715Z,101472.44
2022-08-19T19:32:39.184Z,101466.69
2022-08-19T19:35:07.653Z,101470.03
2022-08-19T19:37:35.143Z,101473.38
2022-08-19T19:40:02.857Z,101478.09
2022-08-19T19:42:31.844Z,101482.13
2022-08-19T19:45:02.109Z,101483.38
2022-08-19T19:47:31.010Z,101470.91
2022-08-19T19:50:15.473Z,101464.56
2022-08-19T19:52:45.515Z,101465.50
2022-08-19T19:55:15.655Z,101462.38
2022-08-19T19:57:45.234Z,101462.38
2022-08-19T20:00:15.260Z,101460.78
2022-08-19T20:02:49.158Z,101459.84
2022-08-19T20:05:19.185Z,101459.84
2022-08-19T20:08:04.372Z,101459.50
2022-08-19T20:10:32.632Z,101454.38
2022-08-19T20:13:03.422Z,101461.16
2022-08-19T20:15:32.278Z,101461.97
2022-08-19T20:18:00.781Z,101458.28
2022-08-19T20:20:28.636Z,101461.63
2022-08-19T20:22:56.385Z,101474.41
2022-08-19T20:25:24.172Z,101480.63
2022-08-19T20:27:52.048Z,101480.47
2022-08-19T20:30:21.961Z,101471.22
2022-08-19T20:32:51.446Z,101475.63
2022-08-19T20:35:20.445Z,101476.13
2022-08-19T20:37:48.066Z,101464.50
2022-08-19T20:40:16.880Z,101463.19
2022-08-19T20:42:50.740Z,101471.53
2022-08-19T20:45:32.700Z,101468.88
2022-08-19T20:48:03.747Z,101466.44
2022-08-19T20:50:31.417Z,101469.69
2022-08-19T20:52:59.223Z,101471.88
2022-08-19T20:55:28.392Z,101470.84
2022-08-19T20:57:56.634Z,101467.97
2022-08-19T21:00:24.383Z,101472.47
2022-08-19T21:02:52.105Z,101459.66
2022-08-19T21:05:21.393Z,101474.41
2022-08-19T21:07:49.074Z,101463.78
2022-08-19T21:10:16.666Z,101467.03
2022-08-19T21:12:44.732Z,101471.28
2022-08-19T21:15:12.370Z,101454.38
2022-08-19T21:17:40.016Z,101457.81
2022-08-19T21:20:09.590Z,101451.94
2022-08-19T21:22:38.776Z,101472.09
2022-08-19T21:25:07.428Z,101467.97
2022-08-19T21:27:35.003Z,101467.16
2022-08-19T21:30:02.409Z,101480.19
2022-08-19T21:32:29.905Z,101481.22
2022-08-19T21:34:57.735Z,101472.69
2022-08-19T21:37:26.246Z,101471.44
2022-08-19T21:39:55.335Z,101478.59
2022-08-19T21:42:23.449Z,101480.44
2022-08-19T21:44:51.201Z,101440.94
2022-08-19T21:47:18.666Z,101462.44
2022-08-19T21:49:46.075Z,101457.13
2022-08-19T21:52:13.928Z,101458.75
2022-08-19T21:54:42.053Z,101457.94
2022-08-19T21:57:11.166Z,101462.91
2022-08-19T21:59:39.717Z,101468.53
2022-08-19T22:02:19.911Z,101479.94
2022-08-19T22:04:49.013Z,101468.78
2022-08-19T22:07:16.582Z,101481.47
2022-08-19T22:09:44.697Z,101478.00
2022-08-19T22:12:25.447Z,101471.06
2022-08-19T22:14:53.379Z,101476.16
2022-08-19T22:17:22.359Z,101469.81
2022-08-19T22:19:49.868Z,101474.88
2022-08-19T22:22:20.757Z,101463.50
2022-08-19T22:24:48.290Z,101455.75
2022-08-19T22:27:17.117Z,101467.97
2022-08-19T22:29:44.689Z,101475.13
2022-08-19T22:32:26.771Z,101482.81
2022-08-19T22:34:56.597Z,101480.44
2022-08-19T22:37:24.055Z,101474.31
2022-08-19T22:39:51.622Z,101477.19
2022-08-19T22:42:21.091Z,101480.06
2022-08-19T22:44:48.593Z,101485.38
2022-08-19T22:47:16.201Z,101481.91
2022-08-19T22:49:44.642Z,101478.00
2022-08-19T22:52:20.223Z,101472.56
2022-08-19T22:54:48.588Z,101479.09
2022-08-19T22:57:16.189Z,101481.44
2022-08-19T22:59:45.046Z,101477.97
2022-08-19T23:02:12.852Z,101483.47
2022-08-19T23:04:40.408Z,101485.91
2022-08-19T23:07:09.211Z,101492.03
2022-08-19T23:09:36.726Z,101490.19
2022-08-19T23:12:04.734Z,101487.97
2022-08-19T23:14:32.198Z,101490.84
2022-08-19T23:17:01.414Z,101432.19
2022-08-19T23:19:29.701Z,101480.56
2022-08-19T23:21:57.583Z,101484.47
2022-08-19T23:24:25.105Z,101478.81
2022-08-19T23:27:10.184Z,101485.72
2022-08-19T23:29:55.135Z,101435.69
2022-08-19T23:32:25.401Z,101503.47
2022-08-19T23:34:52.898Z,101493.91
2022-08-19T23:37:20.355Z,101488.59
2022-08-19T23:39:49.089Z,101492.88
2022-08-19T23:42:16.711Z,101487.94
2022-08-19T23:44:51.297Z,101485.50
2022-08-19T23:47:20.454Z,101488.38
2022-08-19T23:49:49.597Z,101491.84
2022-08-19T23:52:17.110Z,101487.78
2022-08-19T23:54:44.617Z,101481.69
2022-08-19T23:57:13.281Z,101478.00
2022-08-19T23:59:42.403Z,101481.81
